KPOC/POC METAR and TAF weather

Enter ICAO airport designator
Station Type Date Time Source
KPOC METAR 2020/06/02 18:47 UTC NOAA

KPOC 021847Z 26007KT 07SM CLR 24/13 A2999


Station Type Date Time Source
KPOC Decoded METAR 2020/06/02 18:47 UTC NOAA

La Verne / Brackett, CA, United States (KPOC) 34-06N 117-47W
Jun 02, 2020 - 02:47 PM EDT / 2020.06.02 1847 UTC
Wind: from the W (260 degrees) at 8 MPH (7 KT):0
Visibility: 7 mile(s):0
Sky conditions: clear
Temperature: 75 F (24 C)
Dew Point: 55 F (13 C)
Relative Humidity: 50%
Pressure (altimeter): 29.99 in. Hg (1015 hPa)
ob: KPOC 021847Z 26007KT 07SM CLR 24/13 A2999
cycle: 19

Station Type Date Time Source
KPOC TAF UTC NOAA

Error!

Example: see airport list